Time;durP1;ratioP1;P1;durP2;ratioP2;P2;SDS_P1;SDS_P2;PMS_P1;PMS_P2;Temp;Humidity;BMP_temperature;BMP_pressure;BME280_temperature;BME280_humidity;BME280_pressure;Samples;Min_cycle;Max_cycle;Signal;HPM_P1;HPM_P2
2021/05/03 00:00:38;;;;;;;7.03;3.30;;;;;;;3.81;100.00;98527.64;3773876;77;44034;-21
2021/05/03 00:05:46;;;;;;;3.83;2.77;;;;;;;3.85;100.00;98528.63;3776648;78;43888;-21
2021/05/03 00:10:53;;;;;;;4.70;2.80;;;;;;;3.82;100.00;98534.67;3777348;77;43848;-21
2021/05/03 00:15:58;;;;;;;4.63;2.80;;;;;;;3.82;100.00;98537.34;3775164;78;44090;-21
2021/05/03 00:21:05;;;;;;;3.80;2.90;;;;;;;3.88;100.00;98541.36;3777236;77;43361;-21
2021/05/03 00:26:11;;;;;;;4.13;2.70;;;;;;;3.84;100.00;98542.05;3776056;77;44038;-21
2021/05/03 00:31:17;;;;;;;3.00;2.63;;;;;;;3.90;100.00;98542.94;3771636;77;44066;-21
2021/05/03 00:36:23;;;;;;;5.63;3.27;;;;;;;3.84;100.00;98541.58;3777701;77;43365;-21
2021/05/03 00:41:29;;;;;;;4.97;3.10;;;;;;;3.73;100.00;98544.20;3772253;78;44748;-22
2021/05/03 00:46:34;;;;;;;3.47;3.10;;;;;;;3.75;100.00;98545.41;3775666;78;43540;-22
2021/05/03 00:51:40;;;;;;;4.03;3.23;;;;;;;3.71;100.00;98552.79;3774482;77;44077;-22
2021/05/03 00:56:46;;;;;;;3.33;2.90;;;;;;;3.63;100.00;98553.35;3776300;78;43413;-22
2021/05/03 01:01:52;;;;;;;3.33;2.93;;;;;;;3.65;100.00;98557.22;3774994;77;43792;-22
2021/05/03 01:06:57;;;;;;;4.83;2.90;;;;;;;3.69;100.00;98550.25;3776888;77;44019;-22
2021/05/03 01:12:04;;;;;;;4.67;3.00;;;;;;;3.75;100.00;98556.94;3775837;78;43358;-22
2021/05/03 01:17:10;;;;;;;3.97;2.80;;;;;;;3.83;100.00;98556.33;3775527;78;44090;-22
2021/05/03 01:22:17;;;;;;;3.63;3.10;;;;;;;3.88;100.00;98560.02;3778580;77;43743;-22
2021/05/03 01:27:22;;;;;;;4.87;3.30;;;;;;;3.86;100.00;98560.11;3775924;78;44055;-22
2021/05/03 01:32:29;;;;;;;4.47;3.10;;;;;;;3.88;100.00;98555.52;3775647;77;43716;-22
2021/05/03 01:37:35;;;;;;;4.07;3.40;;;;;;;3.85;100.00;98557.08;3773227;77;43971;-21
2021/05/03 01:42:41;;;;;;;3.67;3.20;;;;;;;3.81;100.00;98562.29;3778502;77;43379;-22
2021/05/03 01:47:47;;;;;;;3.40;3.10;;;;;;;3.80;100.00;98563.25;3806060;78;44153;-22
2021/05/03 01:52:53;;;;;;;4.47;2.93;;;;;;;3.82;100.00;98567.98;3806882;76;43381;-23
2021/05/03 01:57:59;;;;;;;4.87;3.47;;;;;;;3.79;100.00;98570.38;3802175;77;43718;-23
2021/05/03 02:03:05;;;;;;;4.63;3.10;;;;;;;3.83;100.00;98574.53;3804994;78;43588;-20
2021/05/03 02:08:12;;;;;;;4.20;3.40;;;;;;;3.80;100.00;98579.23;3803429;76;43475;-20
2021/05/03 02:13:18;;;;;;;3.87;3.47;;;;;;;3.83;100.00;98576.32;3801870;76;44063;-20
2021/05/03 02:18:24;;;;;;;5.17;3.73;;;;;;;3.81;100.00;98583.11;3802524;76;43673;-20
2021/05/03 02:23:30;;;;;;;3.87;3.27;;;;;;;3.73;100.00;98584.64;3808243;76;44069;-21
2021/05/03 02:28:35;;;;;;;4.60;3.80;;;;;;;3.75;100.00;98584.05;3805553;78;43380;-20
2021/05/03 02:33:42;;;;;;;6.23;3.60;;;;;;;3.63;100.00;98592.48;3804492;78;43250;-21
2021/05/03 02:38:48;;;;;;;4.90;3.10;;;;;;;3.49;100.00;98585.02;3803912;76;44001;-21
2021/05/03 02:43:54;;;;;;;4.07;3.33;;;;;;;3.52;100.00;98590.13;3806650;76;43977;-21
2021/05/03 02:49:01;;;;;;;4.73;3.53;;;;;;;3.53;100.00;98591.80;3803743;76;43421;-21
2021/05/03 02:54:08;;;;;;;4.93;3.57;;;;;;;3.46;100.00;98583.91;3806373;76;43677;-21
2021/05/03 02:59:14;;;;;;;5.67;3.60;;;;;;;3.35;100.00;98581.17;3804672;77;43357;-21
2021/05/03 03:04:21;;;;;;;5.77;3.63;;;;;;;3.30;100.00;98591.30;3805397;77;43931;-21
2021/05/03 03:09:27;;;;;;;5.07;3.40;;;;;;;3.19;100.00;98596.08;3804653;76;43533;-21
2021/05/03 03:14:32;;;;;;;4.53;3.93;;;;;;;3.22;100.00;98602.03;3806331;76;43358;-19
2021/05/03 03:19:40;;;;;;;5.87;3.70;;;;;;;3.18;100.00;98605.86;3802890;76;43345;-20
2021/05/03 03:24:45;;;;;;;5.03;4.30;;;;;;;3.17;100.00;98609.98;3807940;76;44041;-19
2021/05/03 03:29:52;;;;;;;4.37;3.80;;;;;;;3.13;100.00;98609.35;3807975;77;44065;-19
2021/05/03 03:34:58;;;;;;;7.83;4.40;;;;;;;3.14;100.00;98607.52;3805930;78;44068;-19
2021/05/03 03:40:04;;;;;;;5.13;4.40;;;;;;;3.12;100.00;98608.98;3807700;76;44755;-19
2021/05/03 03:45:14;;;;;;;5.77;4.00;;;;;;;3.12;100.00;98614.30;3793648;77;44062;-19
2021/05/03 03:50:20;;;;;;;5.33;3.97;;;;;;;3.12;100.00;98624.95;3773159;77;43145;-19
2021/05/03 03:55:28;;;;;;;7.30;4.63;;;;;;;3.12;100.00;98633.43;3776940;77;43381;-20
2021/05/03 04:00:33;;;;;;;7.33;4.40;;;;;;;3.12;100.00;98636.09;3775037;77;44066;-20
2021/05/03 04:05:59;;;;;;;6.17;4.60;;;;;;;3.14;100.00;98638.14;3775426;78;43423;-20
2021/05/03 04:11:03;;;;;;;5.10;4.37;;;;;;;3.16;100.00;98649.53;3775823;77;44049;-20
2021/05/03 04:21:29;;;;;;;7.73;4.97;;;;;;;3.25;100.00;98655.53;3778087;77;43682;-20
2021/05/03 04:26:34;;;;;;;7.40;4.83;;;;;;;3.38;100.00;98657.70;3776509;77;43690;-20
2021/05/03 04:31:40;;;;;;;5.87;4.93;;;;;;;3.42;100.00;98652.16;3774806;77;44062;-20
2021/05/03 04:36:47;;;;;;;7.03;4.60;;;;;;;3.49;100.00;98658.73;3770708;78;43412;-20
2021/05/03 04:41:52;;;;;;;6.63;4.60;;;;;;;3.53;100.00;98665.06;3774705;78;43705;-20
2021/05/03 04:46:58;;;;;;;6.60;4.90;;;;;;;3.68;100.00;98677.78;3776628;77;43331;-20
2021/05/03 04:52:04;;;;;;;6.67;4.43;;;;;;;3.73;100.00;98687.23;3775825;77;43305;-20
2021/05/03 04:57:11;;;;;;;6.10;4.50;;;;;;;3.78;100.00;98686.43;3774520;78;43670;-20
2021/05/03 05:02:18;;;;;;;6.60;5.10;;;;;;;3.89;100.00;98686.96;3778198;77;44416;-21
2021/05/03 05:07:24;;;;;;;7.10;4.90;;;;;;;3.90;100.00;98690.86;3774973;77;44061;-21
2021/05/03 05:12:30;;;;;;;5.80;4.67;;;;;;;3.92;100.00;98700.07;3777576;77;43449;-20
2021/05/03 05:17:38;;;;;;;10.27;5.47;;;;;;;3.97;100.00;98696.11;3776820;77;44118;-20
2021/05/03 05:22:44;;;;;;;6.47;4.97;;;;;;;4.02;100.00;98703.77;3774021;78;43995;-20
2021/05/03 05:27:49;;;;;;;7.33;5.13;;;;;;;4.11;100.00;98703.58;3775108;77;44011;-20
2021/05/03 05:32:55;;;;;;;7.17;4.83;;;;;;;4.18;100.00;98698.14;3773254;77;43417;-20
2021/05/03 05:38:01;;;;;;;7.73;4.77;;;;;;;4.23;100.00;98705.33;3769788;77;43450;-20
2021/05/03 05:43:07;;;;;;;6.80;5.60;;;;;;;4.29;100.00;98703.53;3772073;78;43682;-20
2021/05/03 05:48:14;;;;;;;7.67;4.97;;;;;;;4.38;100.00;98707.83;3779140;77;43715;-20
2021/05/03 05:53:20;;;;;;;8.47;5.07;;;;;;;4.48;100.00;98708.34;3772291;78;43906;-21
2021/05/03 05:58:28;;;;;;;5.93;4.57;;;;;;;4.52;100.00;98713.45;3769691;78;43335;-22
2021/05/03 06:03:33;;;;;;;6.13;4.27;;;;;;;4.46;100.00;98709.43;3774549;77;43694;-20
2021/05/03 06:08:39;;;;;;;7.07;4.90;;;;;;;4.53;100.00;98705.32;3774802;78;44110;-20
2021/05/03 06:13:45;;;;;;;5.83;4.73;;;;;;;4.70;100.00;98707.20;3777265;77;44032;-20
2021/05/03 06:18:51;;;;;;;8.37;4.93;;;;;;;4.81;100.00;98711.73;3769160;78;44076;-20
2021/05/03 06:23:57;;;;;;;5.63;4.13;;;;;;;4.94;100.00;98713.80;3772954;78;43338;-19
2021/05/03 06:29:04;;;;;;;6.27;4.40;;;;;;;5.02;100.00;98715.42;3774102;77;43711;-20
2021/05/03 06:34:10;;;;;;;6.93;4.60;;;;;;;4.96;100.00;98713.70;3772205;78;44025;-20
2021/05/03 06:39:16;;;;;;;6.10;4.27;;;;;;;5.10;100.00;98725.52;3775288;77;44157;-21
2021/05/03 06:44:22;;;;;;;8.03;4.33;;;;;;;5.24;100.00;98717.25;3775432;77;44096;-19
2021/05/03 06:49:28;;;;;;;5.40;4.00;;;;;;;5.34;100.00;98731.25;3817627;77;44003;-19
2021/05/03 06:54:34;;;;;;;5.57;4.00;;;;;;;5.49;100.00;98726.52;3829502;76;44505;-20
2021/05/03 06:59:41;;;;;;;4.63;3.37;;;;;;;5.69;100.00;98736.96;3833112;76;43373;-19
2021/05/03 07:04:46;;;;;;;3.60;3.10;;;;;;;5.51;100.00;98732.59;3827414;77;43727;-20
2021/05/03 07:09:52;;;;;;;5.10;3.83;;;;;;;5.47;100.00;98750.66;3830585;77;44093;-22
2021/05/03 07:14:57;;;;;;;4.00;2.80;;;;;;;5.50;100.00;98752.27;3828484;76;43341;-22
2021/05/03 07:20:05;;;;;;;4.97;2.70;;;;;;;5.65;99.38;98742.17;3823773;77;44112;-20
2021/05/03 07:25:14;;;;;;;3.50;2.37;;;;;;;5.84;99.06;98743.73;3828370;77;44079;-20
2021/05/03 07:30:21;;;;;;;4.70;2.60;;;;;;;5.81;92.97;98748.02;3830053;76;44012;-20
2021/05/03 07:35:27;;;;;;;4.00;2.30;;;;;;;6.12;96.76;98754.05;3828672;77;43673;-20
2021/05/03 07:40:34;;;;;;;2.83;2.40;;;;;;;6.26;93.66;98762.31;3829200;76;43341;-21
2021/05/03 07:45:40;;;;;;;2.77;2.40;;;;;;;6.26;91.01;98755.62;3828967;76;43148;-22
2021/05/03 07:50:46;;;;;;;2.77;2.50;;;;;;;6.31;87.97;98739.55;3804109;76;43383;-20
2021/05/03 07:55:51;;;;;;;2.73;2.50;;;;;;;6.28;87.89;98744.31;3805566;78;43697;-20
2021/05/03 08:00:57;;;;;;;4.03;2.70;;;;;;;6.70;97.51;98751.59;3809574;76;44041;-20
2021/05/03 08:06:04;;;;;;;3.13;2.60;;;;;;;6.60;94.52;98758.19;3802752;78;43757;-20
2021/05/03 08:11:10;;;;;;;2.83;2.40;;;;;;;7.03;94.65;98741.67;3805594;78;43382;-22
2021/05/03 08:16:18;;;;;;;3.00;2.53;;;;;;;6.74;88.08;98739.62;3806228;76;44690;-21
2021/05/03 08:21:23;;;;;;;3.10;2.80;;;;;;;6.82;85.60;98738.98;3802573;76;44027;-21
2021/05/03 08:26:30;;;;;;;2.55;2.30;;;;;;;6.99;96.36;98750.47;3805474;78;44053;-20
2021/05/03 08:31:36;;;;;;;2.70;2.25;;;;;;;7.10;84.80;98756.23;3806321;76;43354;-22
2021/05/03 08:36:42;;;;;;;3.17;2.30;;;;;;;7.25;83.47;98750.91;3802994;78;44015;-21
2021/05/03 08:41:49;;;;;;;4.17;2.70;;;;;;;7.46;79.59;98740.64;3799170;78;73269;-22
2021/05/03 08:46:58;;;;;;;2.63;2.37;;;;;;;7.35;84.02;98736.70;3799025;76;43309;-22
2021/05/03 08:52:11;;;;;;;3.87;2.95;;;;;;;7.36;76.36;98755.33;3774798;77;43429;-21
2021/05/03 08:57:18;;;;;;;4.30;2.80;;;;;;;7.61;86.20;98742.47;3771292;78;44050;-21
2021/05/03 09:02:25;;;;;;;3.67;2.70;;;;;;;7.46;80.56;98743.33;3774525;77;43377;-21
2021/05/03 09:07:31;;;;;;;3.10;2.10;;;;;;;8.02;83.71;98737.97;3772049;78;43507;-21
2021/05/03 09:12:38;;;;;;;4.00;2.43;;;;;;;7.90;71.18;98734.17;3772698;77;73119;-20
2021/05/03 09:17:44;;;;;;;3.20;2.58;;;;;;;7.94;73.87;98719.00;3771543;77;73648;-21
2021/05/03 09:22:55;;;;;;;5.13;2.70;;;;;;;8.21;82.33;98709.97;3773021;78;44842;-21
2021/05/03 09:28:07;;;;;;;2.72;2.35;;;;;;;8.31;76.00;98710.32;3775501;77;43670;-21
2021/05/03 09:33:22;;;;;;;3.22;2.30;;;;;;;8.21;67.32;98705.44;3774966;77;44044;-22
2021/05/03 09:38:39;;;;;;;3.72;3.00;;;;;;;8.27;71.99;98700.88;3767576;78;43364;-22
2021/05/03 09:43:47;;;;;;;3.37;2.47;;;;;;;8.74;77.46;98698.84;3776344;77;43318;-21
2021/05/03 09:48:54;;;;;;;5.08;2.90;;;;;;;8.80;68.54;98700.11;3784922;78;43466;-22
2021/05/03 09:54:09;;;;;;;2.70;2.42;;;;;;;8.81;67.77;98693.75;3799203;78;44026;-20
2021/05/03 09:59:34;;;;;;;3.10;2.80;;;;;;;8.96;63.86;98682.56;3802048;76;44111;-21
2021/05/03 10:04:53;;;;;;;3.85;2.87;;;;;;;9.23;70.85;98687.98;3806369;78;44017;-21
2021/05/03 10:10:02;;;;;;;4.20;2.77;;;;;;;9.25;62.10;98681.97;3805206;78;43744;-21
2021/05/03 10:15:12;;;;;;;3.87;3.10;;;;;;;9.47;68.56;98685.28;3803649;76;43397;-21
2021/05/03 10:20:20;;;;;;;3.77;2.85;;;;;;;9.20;67.45;98671.31;3805657;78;43989;-21
2021/05/03 10:25:26;;;;;;;3.22;2.70;;;;;;;9.23;60.65;98677.23;3805220;78;43324;-21
2021/05/03 10:30:33;;;;;;;3.27;2.65;;;;;;;9.59;61.67;98668.95;3806727;76;43603;-22
2021/05/03 10:35:44;;;;;;;3.75;2.58;;;;;;;9.73;61.70;98658.22;3801371;78;44169;-22
2021/05/03 10:40:50;;;;;;;3.15;2.72;;;;;;;10.08;59.79;98664.15;3805127;77;43295;-22
2021/05/03 10:46:13;;;;;;;3.00;2.65;;;;;;;9.90;55.06;98660.08;3803450;76;44027;-21
2021/05/03 10:51:37;;;;;;;2.90;2.60;;;;;;;9.75;57.80;98665.65;3821072;77;43431;-22
2021/05/03 10:56:43;;;;;;;2.83;2.52;;;;;;;9.86;58.55;98655.51;3833082;76;43993;-22
2021/05/03 11:02:09;;;;;;;3.12;2.83;;;;;;;9.80;57.64;98654.78;3850674;76;43987;-22
2021/05/03 11:07:16;;;;;;;3.37;3.08;;;;;;;10.11;54.10;98643.66;3859891;75;44456;-22
2021/05/03 11:12:31;;;;;;;3.75;3.10;;;;;;;10.12;54.77;98639.97;3830548;76;44158;-22
2021/05/03 11:17:39;;;;;;;4.20;3.10;;;;;;;9.98;56.42;98640.49;3830548;76;44270;-22
2021/05/03 11:22:50;;;;;;;3.90;3.08;;;;;;;10.29;56.67;98636.94;3829050;77;44226;-22
2021/05/03 11:28:00;;;;;;;3.77;3.35;;;;;;;9.90;55.33;98639.06;3821728;77;43487;-21
2021/05/03 11:33:09;;;;;;;3.40;3.10;;;;;;;10.26;57.05;98626.98;3832651;76;43417;-21
2021/05/03 11:38:24;;;;;;;3.27;2.98;;;;;;;10.51;54.44;98629.92;3828138;77;43365;-21
2021/05/03 11:43:51;;;;;;;3.47;3.00;;;;;;;10.36;54.25;98613.41;3827726;76;43735;-22
2021/05/03 11:48:55;;;;;;;3.62;3.20;;;;;;;10.40;57.31;98619.73;3816876;76;43345;-22
2021/05/03 11:54:01;;;;;;;4.20;3.10;;;;;;;10.16;54.52;98614.44;3769475;78;44127;-22
2021/05/03 11:59:07;;;;;;;3.45;3.15;;;;;;;10.43;56.66;98615.36;3776031;77;44047;-22
2021/05/03 12:04:15;;;;;;;3.30;2.95;;;;;;;10.28;55.41;98618.25;3774350;77;43711;-23
2021/05/03 12:09:21;;;;;;;3.55;3.25;;;;;;;10.44;53.78;98603.59;3768965;77;44038;-22
2021/05/03 12:14:46;;;;;;;6.58;4.03;;;;;;;10.75;55.77;98598.27;3772551;77;43613;-22
2021/05/03 12:19:55;;;;;;;4.17;3.40;;;;;;;11.52;52.53;98593.43;3775439;78;43903;-22
2021/05/03 12:25:05;;;;;;;4.15;3.27;;;;;;;11.62;55.13;98591.44;3773069;77;43484;-22
2021/05/03 12:30:15;;;;;;;3.50;3.20;;;;;;;11.49;51.87;98588.35;3774053;77;43713;-22
2021/05/03 12:35:24;;;;;;;4.47;3.25;;;;;;;11.59;53.52;98590.41;3775009;78;43479;-23
2021/05/03 12:40:36;;;;;;;3.70;3.30;;;;;;;11.76;52.12;98570.22;3775381;77;44062;-22
2021/05/03 12:45:59;;;;;;;3.72;3.40;;;;;;;11.88;50.91;98571.60;3777268;77;44003;-22
2021/05/03 12:57:01;;;;;;;3.90;3.30;;;;;;;11.54;49.70;98554.47;3746305;77;44135;-23
2021/05/03 13:02:18;;;;;;;3.92;3.55;;;;;;;11.89;49.74;98546.30;3776514;77;43677;-21
2021/05/03 13:07:34;;;;;;;3.70;3.35;;;;;;;11.47;52.22;98545.36;3773487;78;44055;-22
2021/05/03 13:29:08;;;;;;;2.92;2.52;;;;;;;11.40;49.60;98526.28;3772528;77;43947;-22
2021/05/03 13:34:15;;;;;;;2.92;2.60;;;;;;;11.20;50.89;98525.70;3775352;78;44057;-22
2021/05/03 13:39:22;;;;;;;2.80;2.47;;;;;;;11.83;52.56;98501.91;3771168;78;44478;-23
2021/05/03 13:44:29;;;;;;;3.55;2.42;;;;;;;11.58;49.62;98494.30;3774905;77;43482;-22
2021/05/03 13:49:36;;;;;;;3.62;2.55;;;;;;;11.46;51.22;98491.58;3775729;78;43762;-23
2021/05/03 13:54:42;;;;;;;2.67;2.47;;;;;;;11.59;49.62;98482.47;3775606;77;43999;-22
2021/05/03 13:59:48;;;;;;;3.20;2.05;;;;;;;11.59;50.20;98471.68;3770187;77;43931;-22
2021/05/03 14:04:54;;;;;;;3.27;2.00;;;;;;;11.53;47.22;98476.41;3774040;78;43897;-22
2021/05/03 14:10:00;;;;;;;2.80;2.20;;;;;;;11.55;48.79;98467.64;3775405;78;44037;-23
2021/05/03 14:15:08;;;;;;;2.42;2.10;;;;;;;11.57;49.12;98472.38;3771913;77;43266;-23
2021/05/03 14:20:16;;;;;;;1.77;1.60;;;;;;;11.93;49.45;98477.95;3775770;78;43325;-22
2021/05/03 14:25:23;;;;;;;2.25;1.75;;;;;;;12.54;46.57;98464.91;3774740;78;43673;-23
2021/05/03 14:30:40;;;;;;;2.83;2.10;;;;;;;12.87;44.89;98467.52;3775240;77;44096;-22
2021/05/03 14:35:36;;;;;;;2.90;1.77;;;;;;;12.85;44.75;98451.98;3773426;77;43485;-22
2021/05/03 14:40:43;;;;;;;2.55;1.90;;;;;;;12.35;46.39;98449.08;3771318;78;43976;-22
2021/05/03 14:45:55;;;;;;;1.45;1.35;;;;;;;11.76;45.81;98452.81;3775433;77;43677;-22
2021/05/03 14:56:34;;;;;;;1.67;1.20;;;;;;;11.37;46.22;98442.16;3787259;78;43943;-23
2021/05/03 15:01:43;;;;;;;2.45;1.37;;;;;;;12.29;43.54;98422.25;3803083;76;44043;-23
2021/05/03 15:06:52;;;;;;;1.15;1.05;;;;;;;13.03;43.24;98418.42;3801686;78;43165;-23
2021/05/03 15:12:00;;;;;;;3.80;1.75;;;;;;;13.81;43.72;98402.19;3801886;77;43694;-23
2021/05/03 15:17:27;;;;;;;2.65;1.40;;;;;;;13.90;40.96;98401.61;3804036;76;43685;-23
2021/05/03 15:22:30;;;;;;;3.67;1.98;;;;;;;13.56;45.05;98395.62;3797996;76;43300;-23
2021/05/03 15:27:39;;;;;;;1.72;1.62;;;;;;;13.42;45.24;98397.25;3793158;78;43474;-22
2021/05/03 15:38:14;;;;;;;1.60;1.35;;;;;;;13.21;46.46;98387.90;3791574;77;43079;-22
2021/05/03 15:43:24;;;;;;;2.17;1.50;;;;;;;12.47;42.74;98381.51;3791303;77;43722;-22
2021/05/03 15:48:29;;;;;;;2.55;1.40;;;;;;;12.41;44.60;98376.78;3794059;76;42989;-22
2021/05/03 15:53:36;;;;;;;1.40;1.30;;;;;;;12.36;45.16;98368.38;3789694;76;44516;-22
2021/05/03 15:58:45;;;;;;;2.00;1.12;;;;;;;12.20;44.57;98366.57;3752193;76;43991;-23
2021/05/03 16:03:52;;;;;;;1.65;1.40;;;;;;;12.32;47.26;98359.78;3791758;76;44041;-21
2021/05/03 16:08:58;;;;;;;2.67;1.35;;;;;;;12.68;46.05;98361.14;3793328;78;43694;-23
2021/05/03 16:14:04;;;;;;;2.87;1.55;;;;;;;12.61;44.17;98361.86;3805340;76;43465;-22
2021/05/03 16:19:11;;;;;;;1.85;1.50;;;;;;;12.41;46.96;98355.17;3793285;78;43209;-22
2021/05/03 16:24:19;;;;;;;2.67;1.55;;;;;;;11.91;44.77;98352.60;3804526;76;43406;-23
2021/05/03 16:29:25;;;;;;;1.52;1.42;;;;;;;11.84;45.20;98343.48;3806495;76;42995;-23
2021/05/03 16:34:32;;;;;;;1.55;1.40;;;;;;;12.30;45.32;98338.33;3804943;78;44065;-21
2021/05/03 16:39:37;;;;;;;1.87;1.57;;;;;;;12.49;43.07;98336.24;3804478;77;43419;-21
2021/05/03 16:44:44;;;;;;;3.42;1.60;;;;;;;12.52;45.44;98331.84;3806103;76;43492;-21
2021/05/03 16:49:50;;;;;;;1.80;1.45;;;;;;;12.49;43.13;98322.73;3802323;77;45037;-22
2021/05/03 16:54:56;;;;;;;1.80;1.57;;;;;;;13.01;43.51;98321.25;3805129;78;43683;-22
2021/05/03 17:00:03;;;;;;;3.70;1.92;;;;;;;12.73;44.02;98304.70;3805877;76;43177;-22
2021/05/03 17:05:11;;;;;;;3.25;1.77;;;;;;;12.77;44.14;98303.31;3803407;78;43724;-22
2021/05/03 17:10:17;;;;;;;3.65;1.77;;;;;;;12.92;43.49;98310.16;3803290;78;42935;-22
2021/05/03 17:15:23;;;;;;;1.95;1.60;;;;;;;12.67;43.57;98298.64;3805842;76;43334;-24
2021/05/03 17:20:31;;;;;;;3.95;2.20;;;;;;;12.46;42.96;98295.56;3805214;76;43609;-23
2021/05/03 17:25:37;;;;;;;4.05;1.80;;;;;;;12.68;43.86;98286.81;3804993;76;43705;-22
2021/05/03 17:30:43;;;;;;;2.20;1.70;;;;;;;12.75;44.55;98286.45;3804379;76;43704;-22
2021/05/03 17:35:52;;;;;;;1.95;1.60;;;;;;;12.76;44.98;98285.41;3804849;78;44010;-22
2021/05/03 17:41:00;;;;;;;2.87;2.00;;;;;;;12.90;45.00;98279.23;3802210;78;44999;-23
2021/05/03 17:46:06;;;;;;;1.80;1.65;;;;;;;12.75;45.69;98271.58;3804021;76;44012;-22
2021/05/03 17:51:13;;;;;;;2.50;2.00;;;;;;;12.28;44.64;98272.00;3797272;78;43066;-22
2021/05/03 17:56:20;;;;;;;3.12;2.12;;;;;;;11.97;45.29;98272.25;3804727;76;44164;-22
2021/05/03 18:01:29;;;;;;;3.60;2.02;;;;;;;11.72;46.83;98267.44;3800225;76;44208;-22
2021/05/03 18:06:36;;;;;;;4.15;2.10;;;;;;;11.50;47.93;98264.46;3803284;78;43682;-22
2021/05/03 18:11:42;;;;;;;4.00;1.90;;;;;;;11.19;46.18;98257.58;3803944;76;43722;-22
2021/05/03 18:16:48;;;;;;;3.05;2.08;;;;;;;10.93;47.10;98268.02;3803962;76;44055;-22
2021/05/03 18:21:55;;;;;;;3.42;2.10;;;;;;;10.65;49.42;98262.91;3802014;76;43396;-22
2021/05/03 18:27:03;;;;;;;2.60;2.37;;;;;;;10.43;50.01;98253.11;3804779;77;43718;-23
2021/05/03 18:32:09;;;;;;;3.65;2.60;;;;;;;10.30;47.91;98256.73;3805196;76;43275;-22
2021/05/03 18:37:15;;;;;;;2.80;2.50;;;;;;;10.26;48.45;98248.16;3778377;76;42778;-21
2021/05/03 18:42:22;;;;;;;4.60;3.60;;;;;;;10.14;49.97;98248.97;3788299;76;43357;-22
2021/05/03 18:47:28;;;;;;;5.17;2.90;;;;;;;10.05;48.40;98251.30;3796261;76;44080;-22
2021/05/03 18:52:35;;;;;;;3.67;2.95;;;;;;;9.96;48.39;98251.76;3792321;76;43174;-22
2021/05/03 18:57:41;;;;;;;4.28;2.85;;;;;;;9.87;48.40;98254.91;3804827;76;44429;-22
2021/05/03 19:02:49;;;;;;;3.65;2.70;;;;;;;9.80;48.59;98248.50;3795260;77;43980;-22
2021/05/03 19:07:55;;;;;;;3.85;2.58;;;;;;;9.69;48.49;98244.73;3806536;76;43641;-21
2021/05/03 19:13:01;;;;;;;4.08;2.50;;;;;;;9.57;47.46;98241.47;3804120;77;44057;-22
2021/05/03 19:18:07;;;;;;;3.10;2.60;;;;;;;9.53;49.44;98232.87;3804376;78;43725;-21
2021/05/03 19:23:13;;;;;;;3.20;2.35;;;;;;;9.38;50.55;98235.80;3804723;76;43722;-22
2021/05/03 19:28:19;;;;;;;2.55;2.30;;;;;;;9.27;51.17;98234.23;3802519;78;43112;-21
2021/05/03 19:33:25;;;;;;;2.70;2.20;;;;;;;9.13;51.92;98230.77;3804126;76;44514;-21
2021/05/03 19:38:31;;;;;;;3.50;2.20;;;;;;;9.00;53.07;98220.41;3800976;76;43706;-21
2021/05/03 19:43:38;;;;;;;2.40;2.15;;;;;;;8.83;54.57;98220.78;3804336;77;43246;-21
2021/05/03 19:48:44;;;;;;;3.33;2.10;;;;;;;8.69;54.24;98219.01;3804768;76;43183;-21
2021/05/03 19:53:59;;;;;;;4.22;2.60;;;;;;;8.65;54.52;98218.97;3805464;76;43991;-22
2021/05/03 20:04:26;;;;;;;2.52;2.12;;;;;;;8.49;56.73;98206.23;3803713;78;43159;-22
2021/05/03 20:09:32;;;;;;;2.97;2.17;;;;;;;8.40;59.31;98209.81;3806813;76;73276;-22
2021/05/03 20:14:38;;;;;;;2.72;2.47;;;;;;;8.31;59.44;98206.19;3805299;78;73594;-22
2021/05/03 20:19:44;;;;;;;3.85;2.70;;;;;;;8.27;60.98;98197.61;3805557;77;43728;-22
2021/05/03 20:24:49;;;;;;;4.42;2.70;;;;;;;8.15;59.80;98201.50;3805333;76;43405;-22
2021/05/03 20:29:56;;;;;;;3.80;2.80;;;;;;;8.07;60.95;98190.66;3804739;78;73123;-22
2021/05/03 20:35:04;;;;;;;3.72;2.85;;;;;;;7.99;61.52;98188.75;3805386;76;44083;-22
2021/05/03 20:40:13;;;;;;;4.23;2.70;;;;;;;7.89;62.15;98182.09;3811488;76;44093;-22
2021/05/03 20:45:19;;;;;;;5.12;2.67;;;;;;;7.81;61.41;98168.60;3804493;76;43505;-23
2021/05/03 20:50:27;;;;;;;3.02;2.60;;;;;;;7.79;59.78;98163.88;3801654;76;44034;-24
2021/05/03 20:55:33;;;;;;;3.95;2.65;;;;;;;7.77;60.93;98163.18;3807978;76;43721;-22
2021/05/03 21:00:39;;;;;;;3.98;3.02;;;;;;;7.71;60.14;98162.77;3805732;78;43995;-23
2021/05/03 21:05:45;;;;;;;6.55;3.08;;;;;;;7.66;60.44;98150.33;3810639;76;43486;-23
2021/05/03 21:10:52;;;;;;;4.03;3.20;;;;;;;7.55;61.43;98152.70;3806197;78;43595;-23
2021/05/03 21:15:58;;;;;;;3.70;2.98;;;;;;;7.48;61.73;98141.37;3800068;76;43996;-24
2021/05/03 21:21:04;;;;;;;4.00;3.00;;;;;;;7.43;60.88;98136.97;3810527;76;44089;-24
2021/05/03 21:26:10;;;;;;;5.30;3.25;;;;;;;7.35;61.94;98134.52;3805314;76;44066;-24
2021/05/03 21:31:16;;;;;;;6.50;3.43;;;;;;;7.28;63.41;98132.09;3804852;76;43702;-22
2021/05/03 21:36:25;;;;;;;5.30;3.62;;;;;;;7.21;63.23;98119.78;3805879;76;69468;-23
2021/05/03 21:41:30;;;;;;;4.90;3.70;;;;;;;7.15;64.62;98118.18;3801333;76;69052;-23
2021/05/03 21:46:37;;;;;;;4.42;3.15;;;;;;;7.06;66.05;98121.23;3804978;77;44026;-23
2021/05/03 21:51:43;;;;;;;5.00;3.23;;;;;;;6.97;66.65;98112.27;3806681;76;69168;-23
2021/05/03 21:56:49;;;;;;;4.70;3.30;;;;;;;6.86;67.14;98111.11;3804975;77;43337;-24
2021/05/03 22:01:55;;;;;;;5.00;3.80;;;;;;;6.80;67.77;98107.17;3803405;76;44385;-23
2021/05/03 22:07:01;;;;;;;5.65;3.77;;;;;;;6.78;68.74;98100.61;3809691;76;44856;-23
2021/05/03 22:12:09;;;;;;;4.60;4.00;;;;;;;6.71;69.22;98092.81;3803907;78;44509;-23
2021/05/03 22:17:20;;;;;;;6.45;3.98;;;;;;;6.70;69.03;98095.14;3804141;76;44021;-23
2021/05/03 22:22:43;;;;;;;5.77;3.80;;;;;;;6.70;69.71;98096.48;3801306;76;43357;-23
2021/05/03 22:28:00;;;;;;;5.67;4.10;;;;;;;6.67;70.21;98091.91;3803477;76;69894;-23
2021/05/03 22:32:55;;;;;;;4.73;3.90;;;;;;;6.69;69.28;98076.05;3801316;78;44097;-23
2021/05/03 22:38:07;;;;;;;5.47;4.08;;;;;;;6.69;71.42;98072.55;3811008;76;43977;-23
2021/05/03 23:05:27;;;;;;;5.30;4.10;;;;;;;6.54;71.26;98008.77;3747405;76;43608;-24
2021/05/03 23:10:39;;;;;;;7.07;4.10;;;;;;;6.41;73.33;98000.20;3807227;76;43021;-23
2021/05/03 23:21:01;;;;;;;5.47;4.00;;;;;;;6.32;73.09;97987.20;3795268;76;43224;-24
2021/05/03 23:26:07;;;;;;;6.37;4.40;;;;;;;6.35;73.50;97986.09;3804064;76;43668;-25
2021/05/03 23:31:12;;;;;;;5.17;4.00;;;;;;;6.24;74.13;97974.54;3803799;76;43579;-22
2021/05/03 23:36:18;;;;;;;4.80;4.23;;;;;;;6.25;73.96;97963.36;3806598;76;44471;-24
2021/05/03 23:41:24;;;;;;;6.53;4.40;;;;;;;6.18;74.87;97952.40;3803080;76;69083;-22
2021/05/03 23:46:31;;;;;;;5.27;4.63;;;;;;;6.13;75.08;97943.95;3805198;78;44036;-22
2021/05/03 23:51:36;;;;;;;6.33;4.60;;;;;;;6.10;75.05;97923.70;3804675;76;69396;-22
2021/05/03 23:56:42;;;;;;;5.20;4.03;;;;;;;6.08;74.65;97914.14;3794370;78;44175;-22
